Latest Weather Observations for Cleve Airport

IDS60801

Issued at 1:35 pm CST Tuesday 2 September 2014 (issued every 30 minutes, with the page automatically refreshed every 10 minutes)

About weather observations | Map of weather stations | Latest weather observations for SA | Other Formats
Station Details ID: 018116 Name: CLEVE AERODROME Lat: -33.71 Lon: 136.50 Height: 175.0 m
Data from the previous 72 hours. | See also: Recent months at Cleve Airport
Date/Time
CST
Temp
°C
App
Temp
°C
Dew
Point
Rel
Hum
%
Delta-T
°C
Wind Press
QNH
hPa
Press
MSL
hPa
Rain
since 9 am
mm
Dir
 
Spd
km/h
Gust
km/h
Spd
kts
Gust
kts
02/01:30pm 14.0 9.6 6.4 60 3.7 SSE 19 28 10 15 1026.0 - 0.4
02/01:00pm 13.2 8.0 7.2 67 2.9 S 24 32 13 17 1026.4 - 0.4
02/12:30pm 12.2 6.2 6.9 70 2.6 S 28 37 15 20 1026.7 - 0.4
02/12:00pm 12.1 6.7 7.8 75 2.1 S 26 37 14 20 1026.8 1026.8 0.2
02/11:30am 12.3 8.4 8.8 79 1.8 SSW 19 24 10 13 1026.9 - 0.2
02/11:00am 11.2 6.5 7.9 80 1.6 S 22 35 12 19 1027.1 - 0.2
02/10:30am 11.1 7.2 8.8 86 1.1 SSW 19 26 10 14 1027.2 - 0.0
02/10:00am 10.6 6.3 7.8 83 1.4 SSW 20 30 11 16 1027.0 - 0.0
02/09:30am 10.4 6.3 8.0 85 1.2 SW 19 39 10 21 1027.0 - 0.0
02/09:00am 9.8 6.0 7.6 86 1.1 SW 17 22 9 12 1026.8 1026.8 1.4
02/08:30am 7.8 4.4 5.8 87 0.9 WSW 13 17 7 9 1026.7 - 1.4
02/08:00am 6.9 2.9 5.1 88 0.8 W 15 19 8 10 1026.6 - 1.4
02/07:30am 6.1 1.6 4.3 88 0.8 W 17 20 9 11 1026.2 - 1.4
02/07:00am 5.6 1.5 4.1 90 0.6 W 15 19 8 10 1026.0 - 1.4
02/06:30am 5.7 1.6 4.2 90 0.6 W 15 20 8 11 1025.8 - 1.4
02/06:00am 5.5 1.4 4.3 92 0.5 W 15 19 8 10 1025.3 1025.3 1.4
02/05:30am 5.4 1.3 4.2 92 0.5 W 15 19 8 10 1025.1 - 1.4
02/05:00am 5.5 1.0 4.3 92 0.5 W 17 20 9 11 1024.9 - 1.4
02/04:30am 5.3 1.2 4.1 92 0.5 W 15 20 8 11 1024.5 - 1.4
02/04:00am 5.3 1.1 4.0 91 0.6 W 15 19 8 10 1024.1 - 1.4
02/03:30am 5.1 0.9 3.9 92 0.5 W 15 19 8 10 1023.7 - 1.4
02/03:00am 5.5 1.0 4.2 91 0.6 WSW 17 20 9 11 1023.6 1023.6 1.4
02/02:30am 5.5 0.6 4.2 91 0.6 W 19 24 10 13 1023.7 - 1.4
02/02:00am 5.6 1.1 4.1 90 0.6 W 17 20 9 11 1023.7 - 1.4
02/01:30am 5.7 0.8 4.0 89 0.7 W 19 24 10 13 1023.5 - 1.4
02/01:00am 5.6 1.0 3.9 89 0.7 W 17 22 9 12 1023.4 - 1.4
02/12:30am 5.9 1.0 3.9 87 0.9 W 19 24 10 13 1023.3 - 1.4
02/12:00am 6.3 1.4 4.1 86 0.9 W 19 24 10 13 1023.3 1023.3 1.4
 
Date/Time
CST
Temp
°C
App
Temp
°C
Dew
Point
Rel
Hum
%
Delta-T
°C
Wind Press
QNH
hPa
Press
MSL
hPa
Rain
since 9 am
mm
Dir
 
Spd
km/h
Gust
km/h
Spd
kts
Gust
kts
01/11:30pm 6.2 1.3 4.0 86 0.9 W 19 24 10 13 1023.1 - 1.4
01/11:00pm 6.3 1.4 4.1 86 0.9 W 19 22 10 12 1023.0 - 1.4
01/10:30pm 6.5 2.0 4.3 86 1.0 W 17 22 9 12 1022.9 - 1.4
01/10:00pm 6.6 2.2 4.6 87 0.9 W 17 22 9 12 1022.7 - 1.4
01/09:30pm 6.8 2.4 4.6 86 1.0 W 17 22 9 12 1022.4 - 1.4
01/09:00pm 7.3 2.9 4.6 83 1.2 W 17 20 9 11 1021.9 1021.9 1.4
01/08:30pm 7.5 3.5 5.0 84 1.1 W 15 20 8 11 1021.6 - 1.4
01/08:00pm 8.0 3.7 5.1 82 1.3 W 17 24 9 13 1021.2 - 1.4
01/07:30pm 8.4 4.2 5.9 84 1.1 W 17 22 9 12 1020.8 - 1.4
01/07:00pm 9.3 5.2 6.0 80 1.5 W 17 22 9 12 1020.2 - 1.4
01/06:30pm 10.1 6.0 6.1 76 1.9 WSW 17 22 9 12 1019.4 - 1.4
01/06:00pm 10.2 5.5 6.2 76 1.9 SW 20 28 11 15 1019.0 1018.9 1.4
01/05:30pm 11.4 4.8 5.9 69 2.6 SW 30 46 16 25 1018.2 - 1.4
01/05:29pm 11.4 5.1 5.9 69 2.6 SW 28 46 15 25 1018.2 - 1.4
01/05:00pm 12.0 8.1 8.8 81 1.6 WSW 19 24 10 13 1017.8 - 1.4
01/04:30pm 11.9 7.0 8.4 79 1.7 WSW 24 33 13 18 1017.5 - 1.4
01/04:00pm 11.6 6.5 9.2 85 1.2 SW 26 35 14 19 1017.1 - 1.4
01/03:30pm 11.0 4.3 8.2 83 1.4 WSW 33 61 18 33 1016.5 - 0.6
01/03:28pm 12.8 6.4 7.0 68 2.8 WSW 30 61 16 33 1016.3 - 0.4
01/03:00pm 14.1 8.1 6.9 62 3.5 WSW 28 43 15 23 1016.1 1016.1 0.4
01/02:43pm 13.0 6.0 7.0 67 2.9 SW 33 52 18 28 1016.1 - 0.4
01/02:30pm 13.3 5.7 7.7 69 2.8 SW 37 52 20 28 1016.0 - 0.4
01/02:09pm 13.6 6.8 7.8 68 2.9 SW 33 54 18 29 1015.5 - 0.4
01/02:00pm 14.4 7.8 7.7 64 3.3 SW 32 48 17 26 1015.4 - 0.4
01/01:51pm 13.9 7.7 7.9 67 3.0 SW 30 48 16 26 1015.3 - 0.4
01/01:30pm 15.2 9.1 8.2 63 3.6 WSW 30 39 16 21 1015.2 - 0.0
01/01:00pm 16.5 10.9 7.2 54 4.7 WSW 26 37 14 20 1015.3 - 0.0
01/12:30pm 15.6 10.1 7.6 59 4.0 SW 26 37 14 20 1015.5 - 0.0
01/12:00pm 15.3 11.2 8.8 65 3.3 SW 20 30 11 16 1015.7 1015.7 0.0
01/11:30am 13.7 9.6 8.5 71 2.6 WSW 20 30 11 16 1016.1 - 0.0
01/11:00am 13.3 9.4 9.5 78 2.0 WSW 20 28 11 15 1016.1 - 0.0
01/10:30am 13.1 9.9 10.1 82 1.6 W 17 24 9 13 1016.2 - 0.0
01/10:00am 12.0 9.2 9.9 87 1.1 WSW 15 20 8 11 1016.2 - 0.0
01/09:30am 11.5 9.9 10.1 91 0.7 W 9 13 5 7 1015.9 - 0.0
01/09:00am 10.8 9.6 10.3 97 0.3 WNW 7 9 4 5 1015.8 1015.8 3.4
01/08:30am 10.5 8.9 10.2 98 0.2 W 9 11 5 6 1015.4 - 3.4
01/08:00am 10.3 8.3 10.0 98 0.2 WSW 11 15 6 8 1015.1 - 3.4
01/07:30am 10.4 6.7 10.1 98 0.2 SSW 20 30 11 16 1014.6 - 3.4
01/07:00am 11.5 9.1 11.3 99 0.1 WSW 15 20 8 11 1014.3 - 3.2
01/06:30am 11.5 9.4 11.2 98 0.2 W 13 19 7 10 1014.1 - 3.0
01/06:00am 11.7 9.2 11.1 96 0.3 W 15 26 8 14 1013.9 1013.8 2.4
01/05:30am 11.8 10.5 11.2 96 0.3 WNW 9 13 5 7 1013.3 - 2.0
01/05:00am 11.5 10.1 11.0 97 0.3 NNW 9 13 5 7 1012.9 - 2.0
01/04:30am 11.4 10.0 10.8 96 0.3 NW 9 13 5 7 1012.9 - 2.0
01/04:00am 11.5 10.1 10.9 96 0.3 W 9 11 5 6 1012.7 - 2.0
01/03:30am 11.6 10.2 11.0 96 0.3 WNW 9 15 5 8 1012.9 - 2.0
01/03:00am 11.3 10.4 10.7 96 0.3 NNW 6 9 3 5 1012.4 1012.3 2.0
01/02:30am 11.3 11.5 10.4 94 0.5 CALM 0 0 0 0 1012.7 - 2.0
01/02:00am 11.6 11.0 10.5 93 0.6 WSW 4 6 2 3 1013.0 - 1.8
01/01:30am 11.8 10.0 10.9 94 0.5 W 11 15 6 8 1013.8 - 1.4
01/01:00am 11.8 10.3 10.5 92 0.7 WSW 9 11 5 6 1013.5 - 1.0
01/12:30am 12.5 10.9 11.6 94 0.5 WSW 11 15 6 8 1013.4 - 0.2
01/12:00am 12.7 11.1 11.6 93 0.6 SSW 11 15 6 8 1012.7 1012.6 0.2
 
Date/Time
CST
Temp
°C
App
Temp
°C
Dew
Point
Rel
Hum
%
Delta-T
°C
Wind Press
QNH
hPa
Press
MSL
hPa
Rain
since 9 am
mm
Dir
 
Spd
km/h
Gust
km/h
Spd
kts
Gust
kts
31/11:30pm 13.3 12.2 12.0 92 0.7 W 9 13 5 7 1013.2 - 0.2
31/11:00pm 13.4 12.0 12.1 92 0.7 W 11 13 6 7 1013.1 - 0.2
31/10:30pm 13.6 12.6 12.3 92 0.7 NW 9 13 5 7 1012.8 - 0.2
31/10:00pm 13.8 11.6 12.2 90 0.9 W 15 20 8 11 1012.9 - 0.0
31/09:30pm 14.2 12.4 12.1 87 1.1 WNW 13 17 7 9 1012.6 - 0.0
31/09:00pm 14.3 12.7 11.5 83 1.5 W 11 13 6 7 1012.8 1012.8 0.0
31/08:30pm 14.4 12.7 11.2 81 1.7 W 11 15 6 8 1012.6 - 0.0
31/08:00pm 14.5 12.4 9.9 74 2.4 W 11 17 6 9 1012.2 - 0.0
31/07:30pm 14.6 12.2 10.0 74 2.4 SSW 13 17 7 9 1011.0 - 0.0
31/07:00pm 15.7 11.8 7.2 57 4.2 W 17 22 9 12 1011.7 - 0.0
31/06:30pm 17.3 12.8 2.1 36 6.9 W 15 26 8 14 1011.8 - 0.0
31/06:00pm 17.9 14.0 1.4 33 7.4 WNW 11 15 6 8 1011.2 1011.3 0.0
31/05:30pm 18.7 14.0 0.8 30 8.0 WNW 15 19 8 10 1010.8 - 0.0
31/05:00pm 19.4 14.2 0.4 28 8.5 W 17 22 9 12 1010.7 - 0.0
31/04:30pm 19.8 14.3 0.8 28 8.6 W 19 32 10 17 1010.7 - 0.0
31/04:00pm 20.4 13.3 1.3 28 8.8 WSW 28 37 15 20 1010.3 - 0.0
31/03:30pm 22.4 16.5 -1.0 21 10.4 W 20 32 11 17 1010.2 - 0.0
31/03:00pm 23.2 17.6 0.9 23 10.4 NW 20 33 11 18 1010.0 1010.0 0.0
31/02:30pm 23.3 16.4 0.4 22 10.6 NW 26 41 14 22 1010.2 - 0.0
31/02:00pm 23.3 16.8 0.4 22 10.6 NNW 24 39 13 21 1010.5 - 0.0
31/01:30pm 22.3 14.2 -0.4 22 10.2 NNW 32 48 17 26 1010.2 - 0.0
31/01:00pm 22.3 15.4 0.2 23 10.1 NNW 26 41 14 22 1010.8 - 0.0
31/12:30pm 23.0 16.0 -0.5 21 10.6 NNW 26 44 14 24 1011.6 - 0.0
31/12:00pm 23.9 15.2 -0.4 20 11.1 NNW 35 48 19 26 1012.0 1012.1 0.0
31/11:48am 23.8 15.5 -0.5 20 11.1 NNW 33 52 18 28 1012.1 - 0.0
31/11:30am 22.6 13.9 -0.8 21 10.5 NNW 35 52 19 28 1012.5 - 0.0
31/11:00am 21.2 13.0 -1.3 22 9.9 NNW 32 54 17 29 1013.0 - 0.0
31/10:34am 21.3 12.4 -1.9 21 10.1 NNW 35 56 19 30 1013.7 - 0.0
31/10:30am 21.3 12.8 -1.9 21 10.1 NNW 33 50 18 27 1013.7 - 0.0
31/10:04am 22.0 14.2 -0.7 22 10.1 NNW 30 48 16 26 1013.9 - 0.0
31/10:00am 22.0 13.9 -0.1 23 10.0 NNW 32 46 17 25 1013.9 - 0.0
31/09:42am 21.3 12.2 -0.6 23 9.8 NNW 37 59 20 32 1013.9 - 0.0
31/09:30am 21.3 12.6 -0.6 23 9.8 NNW 35 52 19 28 1013.9 - 0.0
31/09:00am 20.6 11.5 -0.7 24 9.4 NNW 37 56 20 30 1013.9 1013.9 0.0
31/08:33am 18.8 10.4 -1.1 26 8.6 N 33 52 18 28 1014.1 - 0.0
31/08:30am 18.8 10.0 -1.1 26 8.6 N 35 52 19 28 1014.1 - 0.0
31/08:00am 17.7 9.4 -0.5 29 7.9 N 33 46 18 25 1014.0 - 0.0
31/07:30am 16.7 8.1 -2.4 27 7.9 N 33 46 18 25 1014.2 - 0.0
31/07:00am 16.8 7.7 -3.3 25 8.1 N 35 48 19 26 1014.1 - 0.0
31/06:44am 17.0 7.9 -3.7 24 8.3 N 35 54 19 29 1014.0 - 0.0
31/06:30am 17.3 7.8 -4.0 23 8.5 N 37 52 20 28 1013.9 - 0.0
31/06:00am 16.9 7.8 -3.8 24 8.3 N 35 46 19 25 1013.9 1013.9 0.0
31/05:30am 16.9 8.2 -3.8 24 8.3 NNW 33 48 18 26 1013.7 - 0.0
31/05:00am 17.2 8.4 -4.1 23 8.5 NNW 33 43 18 23 1013.8 - 0.0
31/04:30am 17.2 8.4 -4.1 23 8.5 NNW 33 46 18 25 1013.4 - 0.0
31/04:21am 17.2 8.6 -4.1 23 8.5 NNW 32 50 17 27 1013.3 - 0.0
31/04:00am 17.7 8.5 -4.3 22 8.8 N 35 44 19 24 1013.2 - 0.0
31/03:30am 17.3 8.7 -4.0 23 8.5 N 32 43 17 23 1013.5 - 0.0
31/03:00am 17.2 7.7 -4.1 23 8.5 N 37 46 20 25 1013.5 1013.5 0.0
31/02:30am 17.3 8.2 -4.0 23 8.5 N 35 46 19 25 1013.6 - 0.0
31/02:00am 17.2 8.0 -4.1 23 8.5 N 35 48 19 26 1014.0 - 0.0
31/01:30am 16.9 8.1 -4.3 23 8.4 N 33 46 18 25 1014.6 - 0.0
31/01:00am 17.2 9.4 -4.1 23 8.5 N 28 43 15 23 1014.8 - 0.0
31/12:30am 16.7 8.8 -4.5 23 8.3 N 28 39 15 21 1015.5 - 0.0
31/12:00am 16.4 9.3 -4.2 24 8.1 N 24 32 13 17 1015.6 1015.7 0.0
 
Date/Time
CST
Temp
°C
App
Temp
°C
Dew
Point
Rel
Hum
%
Delta-T
°C
Wind Press
QNH
hPa
Press
MSL
hPa
Rain
since 9 am
mm
Dir
 
Spd
km/h
Gust
km/h
Spd
kts
Gust
kts
30/11:30pm 16.4 8.9 -4.2 24 8.1 N 26 33 14 18 1015.9 - 0.0
30/11:00pm 16.9 10.2 -4.3 23 8.4 N 22 32 12 17 1016.2 - 0.0
30/10:30pm 16.9 9.8 -4.3 23 8.4 N 24 32 13 17 1016.6 - 0.0
30/10:00pm 17.1 10.0 -4.2 23 8.5 N 24 33 13 18 1016.9 - 0.0
30/09:30pm 17.4 10.4 -3.9 23 8.6 N 24 32 13 17 1017.3 - 0.0
30/09:00pm 17.3 10.6 -4.0 23 8.5 N 22 28 12 15 1017.5 1017.6 0.0
30/08:30pm 16.8 10.1 -3.9 24 8.3 N 22 28 12 15 1017.6 - 0.0
30/08:00pm 16.2 10.6 -3.3 26 7.8 N 17 22 9 12 1017.8 - 0.0
30/07:30pm 17.1 11.4 -3.6 24 8.3 N 17 20 9 11 1017.8 - 0.0
30/07:00pm 17.8 12.5 -3.6 23 8.7 NNW 15 19 8 10 1017.8 - 0.0
30/06:30pm 18.1 13.2 -3.3 23 8.8 NNW 13 19 7 10 1017.7 - 0.0
30/06:00pm 19.2 14.0 -3.0 22 9.2 NNW 15 22 8 12 1017.8 1017.9 0.0
30/05:30pm 20.1 14.9 -2.9 21 9.7 NNW 15 24 8 13 1017.6 - 0.0
30/05:00pm 21.6 15.0 -3.7 18 10.6 NNW 22 35 12 19 1017.6 - 0.0
30/04:30pm 22.6 15.3 -2.9 18 11.0 NNW 26 41 14 22 1017.4 - 0.0
30/04:00pm 22.7 14.9 -3.6 17 11.2 NNW 28 39 15 21 1017.5 - 0.0
30/03:30pm 23.4 16.2 -2.2 18 11.2 NNW 26 37 14 20 1017.7 - 0.0
30/03:00pm 23.5 16.7 -2.2 18 11.3 NNW 24 39 13 21 1018.1 1018.2 0.0
30/02:30pm 23.9 15.9 -2.6 17 11.6 NNW 30 43 16 23 1018.4 - 0.0
30/02:00pm 24.3 16.7 -2.3 17 11.8 NNW 28 44 15 24 1018.7 - 0.0
30/01:43pm 23.7 15.3 -2.8 17 11.5 NNW 32 50 17 27 1018.9 - 0.0

Other Formats:

Comma delimited format used in spreadsheet applications
http://www.bom.gov.au/fwo/IDS60801/IDS60801.94662.axf

JavaScript Object Notation format (JSON) in row-major order
http://www.bom.gov.au/fwo/IDS60801/IDS60801.94662.json